Time;durP1;ratioP1;P1;durP2;ratioP2;P2;SDS_P1;SDS_P2;PMS_P1;PMS_P2;Temp;Humidity;BMP_temperature;BMP_pressure;BME280_temperature;BME280_humidity;BME280_pressure;Samples;Min_cycle;Max_cycle;Signal;HPM_P1;HPM_P2
2022/09/01 00:28:43;;;;;;;7.25;6.43;;;;;;;15.43;100.00;99886.63;4288383;26;20416;-83
2022/09/01 00:31:09;;;;;;;7.50;6.47;;;;;;;15.32;100.00;99879.56;4970323;28;20397;-82
2022/09/01 00:33:35;;;;;;;8.68;7.22;;;;;;;15.26;100.00;99883.47;4961676;28;20065;-83
2022/09/01 00:36:02;;;;;;;7.68;6.25;;;;;;;15.19;100.00;99884.59;4952353;28;20306;-82
2022/09/01 00:38:28;;;;;;;7.45;6.50;;;;;;;15.16;100.00;99879.94;4977704;28;20053;-83
2022/09/01 00:40:53;;;;;;;7.05;6.35;;;;;;;15.08;100.00;99886.34;4968200;28;20398;-83
2022/09/01 00:43:36;;;;;;;7.43;6.78;;;;;;;15.10;100.00;99895.78;4950150;28;20038;-83
2022/09/01 00:46:11;;;;;;;7.40;6.57;;;;;;;15.06;100.00;99888.81;4968386;28;20050;-82
2022/09/01 00:48:37;;;;;;;6.88;6.18;;;;;;;15.06;100.00;99889.59;4998085;28;20083;-82
2022/09/01 00:51:04;;;;;;;6.97;6.28;;;;;;;15.03;100.00;99901.72;4948883;28;20054;-82
2022/09/01 00:53:30;;;;;;;7.70;6.90;;;;;;;15.07;100.00;99898.75;4940104;28;20047;-82
2022/09/01 00:55:56;;;;;;;7.18;6.47;;;;;;;15.06;100.00;99902.78;4959178;28;20450;-82
2022/09/01 00:58:21;;;;;;;7.78;7.00;;;;;;;15.02;100.00;99900.16;4944209;28;20047;-82
2022/09/01 01:03:29;;;;;;;8.90;8.00;;;;;;;15.01;100.00;99897.81;5011096;23;20203;-88
2022/09/01 01:05:57;;;;;;;10.30;7.80;;;;;;;15.06;100.00;99891.59;4973198;28;20039;-88
2022/09/01 01:08:32;;;;;;;8.30;7.10;;;;;;;15.06;100.00;99900.00;4956246;28;20125;-86
2022/09/01 01:11:04;;;;;;;9.48;8.45;;;;;;;15.09;100.00;99897.03;4984437;28;20478;-88
2022/09/01 01:13:48;;;;;;;8.95;7.93;;;;;;;15.10;100.00;99886.63;4981280;28;20035;-88
2022/09/01 01:16:14;;;;;;;9.25;8.35;;;;;;;15.10;100.00;99895.78;4965734;28;20055;-89
2022/09/01 01:18:41;;;;;;;10.50;9.52;;;;;;;15.13;100.00;99903.22;4987446;28;20042;-79
2022/09/01 01:24:06;;;;;;;9.45;8.55;;;;;;;15.13;100.00;99896.84;4957290;28;20069;-78
2022/09/01 01:26:31;;;;;;;11.35;8.48;;;;;;;15.06;100.00;99883.22;4972966;28;20050;-79
2022/09/01 01:28:57;;;;;;;8.95;8.10;;;;;;;14.99;100.00;99891.94;4971469;28;20062;-79
2022/09/01 01:31:24;;;;;;;10.75;8.20;;;;;;;14.97;100.00;99894.44;4955292;28;20043;-79
2022/09/01 01:33:55;;;;;;;9.20;8.30;;;;;;;15.02;100.00;99882.63;4969808;28;20038;-79
2022/09/01 01:36:34;;;;;;;8.73;7.55;;;;;;;14.93;100.00;99881.41;4948577;28;20500;-79
2022/09/01 01:39:14;;;;;;;8.40;7.47;;;;;;;14.93;100.00;99875.81;4981658;28;20121;-79
2022/09/01 01:41:44;;;;;;;8.95;8.05;;;;;;;14.94;100.00;99877.38;4988141;28;20039;-89
2022/09/01 01:44:12;;;;;;;7.90;7.10;;;;;;;14.94;100.00;99885.75;4987465;28;20042;-89
2022/09/01 01:46:45;;;;;;;9.30;7.07;;;;;;;14.92;100.00;99887.47;4966706;28;20451;-88
2022/09/01 01:49:14;;;;;;;7.63;6.85;;;;;;;14.99;100.00;99875.19;4982848;28;20138;-89
2022/09/01 01:51:40;;;;;;;7.70;7.00;;;;;;;14.89;100.00;99872.44;4965271;28;20141;-89
2022/09/01 01:54:06;;;;;;;8.68;7.47;;;;;;;14.96;100.00;99887.31;4961450;28;20559;-89
2022/09/01 01:56:34;;;;;;;8.38;7.57;;;;;;;15.01;100.00;99893.03;4990385;28;20043;-88
2022/09/01 01:59:00;;;;;;;7.82;7.10;;;;;;;15.06;100.00;99886.03;4950114;28;20090;-89
2022/09/01 02:01:30;;;;;;;8.45;7.63;;;;;;;15.09;100.00;99885.06;4971287;28;20041;-88
2022/09/01 02:03:58;;;;;;;8.57;7.78;;;;;;;15.06;100.00;99886.81;4973251;28;20049;-89
2022/09/01 02:06:25;;;;;;;9.38;8.38;;;;;;;15.01;100.00;99893.03;4995724;28;20398;-88
2022/09/01 02:08:56;;;;;;;9.93;8.68;;;;;;;15.04;100.00;99885.72;5002579;28;20097;-88
2022/09/01 02:11:23;;;;;;;10.13;9.23;;;;;;;15.03;100.00;99886.97;4993406;28;20037;-89
2022/09/01 02:13:48;;;;;;;11.95;10.52;;;;;;;15.06;100.00;99891.59;4996696;28;20038;-88
2022/09/01 02:16:15;;;;;;;11.73;10.52;;;;;;;15.01;100.00;99897.81;5001361;28;20097;-89
2022/09/01 02:18:46;;;;;;;11.88;10.35;;;;;;;15.02;100.00;99897.38;4994935;28;20031;-89
2022/09/01 02:21:17;;;;;;;11.73;9.93;;;;;;;15.01;100.00;99881.06;4999529;28;20047;-89
2022/09/01 02:23:43;;;;;;;11.65;10.55;;;;;;;15.03;100.00;99901.72;4997813;28;20105;-89
2022/09/01 02:26:10;;;;;;;11.18;10.07;;;;;;;15.05;100.00;99906.81;4993964;28;20452;-89
2022/09/01 02:28:41;;;;;;;10.98;9.88;;;;;;;15.05;100.00;99906.81;4992490;28;20034;-90
2022/09/01 02:31:08;;;;;;;11.02;9.90;;;;;;;15.06;100.00;99908.38;4990387;28;20295;-89
2022/09/01 02:33:35;;;;;;;11.88;10.68;;;;;;;15.07;100.00;99910.69;4974779;28;20062;-90
2022/09/01 02:36:13;;;;;;;11.48;10.27;;;;;;;15.06;100.00;99913.97;4975375;28;20053;-90
2022/09/01 02:38:41;;;;;;;11.30;10.27;;;;;;;14.99;100.00;99915.06;4975538;28;20391;-79
2022/09/01 02:41:07;;;;;;;12.13;10.95;;;;;;;14.97;100.00;99911.19;4995480;28;20708;-79
2022/09/01 02:43:33;;;;;;;13.27;11.23;;;;;;;14.98;100.00;99918.31;4981051;28;20034;-79
2022/09/01 02:46:00;;;;;;;14.43;11.57;;;;;;;15.04;100.00;99913.66;4999342;28;20057;-79
2022/09/01 02:48:31;;;;;;;12.25;11.15;;;;;;;15.09;100.00;99911.00;4989992;28;20042;-79
2022/09/01 02:51:02;;;;;;;12.68;11.38;;;;;;;15.10;100.00;99920.16;4987531;28;20038;-79
2022/09/01 02:53:33;;;;;;;12.68;11.35;;;;;;;15.15;100.00;99925.88;4998320;28;20392;-79
2022/09/01 02:55:58;;;;;;;13.15;11.93;;;;;;;15.10;100.00;99925.75;4997264;28;20046;-78
2022/09/01 02:58:26;;;;;;;14.18;11.68;;;;;;;15.10;100.00;99926.50;4996858;28;20112;-79
2022/09/01 03:00:54;;;;;;;13.85;12.52;;;;;;;15.09;100.00;99930.53;4991336;28;20569;-79
2022/09/01 03:03:20;;;;;;;13.45;12.25;;;;;;;15.13;100.00;99930.38;4996454;28;20147;-78
2022/09/01 03:05:47;;;;;;;13.38;12.18;;;;;;;15.18;100.00;99932.53;4993651;28;20042;-79
2022/09/01 03:08:15;;;;;;;13.90;11.60;;;;;;;15.22;100.00;99938.72;4996433;28;20515;-79
2022/09/01 03:10:43;;;;;;;12.77;11.45;;;;;;;15.20;100.00;99932.84;4996896;28;20066;-79
2022/09/01 03:13:20;;;;;;;12.40;11.30;;;;;;;15.19;100.00;99934.09;4991192;28;20046;-91
2022/09/01 03:15:46;;;;;;;12.27;11.05;;;;;;;15.22;100.00;99927.56;4996856;28;20387;-79
2022/09/01 03:18:13;;;;;;;11.93;10.82;;;;;;;15.26;100.00;99917.75;5008730;28;20521;-79
2022/09/01 03:20:45;;;;;;;12.00;10.75;;;;;;;15.25;100.00;99915.44;4982494;28;20038;-79
2022/09/01 03:23:13;;;;;;;11.88;10.68;;;;;;;15.19;100.00;99911.75;4988006;28;20108;-78
2022/09/01 03:25:42;;;;;;;10.45;9.52;;;;;;;15.21;100.00;99909.25;4992275;28;20046;-79
2022/09/01 03:28:09;;;;;;;13.15;10.27;;;;;;;15.17;100.00;99908.63;4991497;28;20038;-79
2022/09/01 03:30:39;;;;;;;10.50;9.50;;;;;;;15.14;100.00;99909.59;4992391;28;20046;-79
2022/09/01 03:33:07;;;;;;;11.73;10.52;;;;;;;15.12;100.00;99915.66;4989134;28;20046;-79
2022/09/01 03:35:33;;;;;;;11.30;10.30;;;;;;;15.13;100.00;99913.63;4975207;28;20408;-79
2022/09/01 03:38:00;;;;;;;11.10;10.00;;;;;;;15.08;100.00;99917.06;4992724;28;20035;-79
2022/09/01 03:40:31;;;;;;;11.10;10.07;;;;;;;15.12;100.00;99928.84;4977829;28;20399;-78
2022/09/01 03:43:02;;;;;;;11.05;9.90;;;;;;;15.08;100.00;99931.03;4959483;28;20034;-79
2022/09/01 03:45:29;;;;;;;10.73;9.63;;;;;;;15.09;100.00;99926.97;4990452;28;20045;-79
2022/09/01 03:47:55;;;;;;;10.80;9.80;;;;;;;15.14;100.00;99934.72;4997735;28;20034;-79
2022/09/01 03:50:23;;;;;;;10.75;9.63;;;;;;;15.07;100.00;99932.28;4974907;28;20074;-79
2022/09/01 03:52:55;;;;;;;11.43;10.23;;;;;;;15.08;100.00;99939.41;4979886;28;20073;-79
2022/09/01 03:55:23;;;;;;;10.82;9.73;;;;;;;15.04;100.00;99927.63;4979613;28;20038;-79
2022/09/01 03:57:50;;;;;;;9.98;8.90;;;;;;;14.99;100.00;99931.06;4976645;28;20043;-79
2022/09/01 04:00:21;;;;;;;10.32;9.27;;;;;;;14.98;100.00;99932.28;4989984;28;20034;-79
2022/09/01 04:02:56;;;;;;;10.13;8.57;;;;;;;14.93;100.00;99940.06;4997009;28;20419;-79
2022/09/01 04:05:27;;;;;;;10.15;9.25;;;;;;;14.94;100.00;99936.03;4992607;28;20060;-79
2022/09/01 04:07:55;;;;;;;9.98;9.00;;;;;;;14.96;100.00;99932.00;4992038;28;20407;-78
2022/09/01 04:10:21;;;;;;;9.82;8.88;;;;;;;14.93;100.00;99934.47;4995766;28;20038;-89
2022/09/01 04:12:47;;;;;;;9.18;8.27;;;;;;;14.98;100.00;99940.66;4999559;28;20515;-89
2022/09/01 04:15:15;;;;;;;9.80;8.82;;;;;;;14.98;100.00;99940.66;5003363;28;20049;-89
2022/09/01 04:20:28;;;;;;;10.65;9.65;;;;;;;14.99;100.00;99942.22;4998145;28;20416;-91
2022/09/01 04:22:54;;;;;;;10.98;9.80;;;;;;;15.01;100.00;99950.91;5001622;28;20046;-88
2022/09/01 04:25:24;;;;;;;11.13;10.10;;;;;;;14.96;100.00;99943.94;4977008;28;20148;-89
2022/09/01 04:27:54;;;;;;;10.05;9.10;;;;;;;15.01;100.00;99939.72;4991517;28;20050;-91
2022/09/01 04:30:23;;;;;;;10.35;9.18;;;;;;;15.10;100.00;99942.50;5002179;28;20046;-90
2022/09/01 04:32:55;;;;;;;9.88;8.88;;;;;;;15.07;100.00;99949.03;4990768;28;20045;-78
2022/09/01 04:35:31;;;;;;;10.23;8.30;;;;;;;15.07;100.00;99937.84;4983114;28;20242;-78
2022/09/01 04:37:58;;;;;;;9.48;8.32;;;;;;;15.08;100.00;99945.00;4997144;28;20052;-78
2022/09/01 04:40:25;;;;;;;9.77;8.23;;;;;;;15.08;100.00;99933.81;5002363;28;20026;-78
2022/09/01 04:42:52;;;;;;;9.40;8.48;;;;;;;15.10;100.00;99929.31;4977701;28;20495;-78
2022/09/01 04:45:21;;;;;;;9.35;8.38;;;;;;;15.09;100.00;99940.94;4999400;28;20057;-78
2022/09/01 04:47:47;;;;;;;9.48;8.57;;;;;;;15.01;100.00;99936.94;5002753;28;20038;-79
2022/09/01 04:50:16;;;;;;;9.20;8.40;;;;;;;15.03;100.00;99943.63;5000821;28;20537;-78
2022/09/01 04:53:04;;;;;;;10.13;8.88;;;;;;;14.98;100.00;99944.25;4997370;28;20395;-78
2022/09/01 04:55:32;;;;;;;9.43;8.43;;;;;;;14.98;100.00;99952.63;4990307;28;20050;-78
2022/09/01 04:57:59;;;;;;;9.43;8.52;;;;;;;15.08;100.00;99950.59;4993044;28;20042;-78
2022/09/01 05:00:30;;;;;;;10.40;8.80;;;;;;;15.02;100.00;99952.47;4989903;28;20041;-79
2022/09/01 05:03:03;;;;;;;11.00;8.77;;;;;;;14.98;100.00;99940.66;4993159;28;20041;-79
2022/09/01 05:05:42;;;;;;;9.45;8.60;;;;;;;15.04;100.00;99945.19;4990904;28;20046;-79
2022/09/01 05:08:13;;;;;;;9.00;8.20;;;;;;;15.00;100.00;99941.78;4995528;28;20117;-79
2022/09/01 05:10:41;;;;;;;10.05;9.07;;;;;;;15.03;100.00;99948.44;4993789;28;20053;-79
2022/09/01 05:13:21;;;;;;;9.48;8.45;;;;;;;15.07;100.00;99951.81;4996575;28;20050;-79
2022/09/01 05:16:00;;;;;;;8.88;8.05;;;;;;;15.14;100.00;99959.88;4982962;28;20089;-79
2022/09/01 05:18:26;;;;;;;8.75;7.82;;;;;;;15.06;100.00;99951.06;4984168;28;20695;-79
2022/09/01 05:20:53;;;;;;;9.30;8.40;;;;;;;15.11;100.00;99950.41;4981294;28;20046;-79
2022/09/01 05:23:20;;;;;;;8.65;7.78;;;;;;;15.12;100.00;99954.78;4998515;28;20046;-79
2022/09/01 05:25:53;;;;;;;9.02;7.82;;;;;;;15.11;100.00;99949.66;5003035;28;20039;-79
2022/09/01 05:28:21;;;;;;;;;;;;;;;15.13;100.00;99953.50;5013214;28;20056;-79
2022/09/01 05:30:47;;;;;;;8.65;7.78;;;;;;;15.07;100.00;99949.03;4996585;28;19921;-95
2022/09/01 05:33:15;;;;;;;9.70;8.20;;;;;;;15.04;100.00;99933.22;4994923;28;20047;-96
2022/09/01 05:35:43;;;;;;;9.13;8.23;;;;;;;15.10;100.00;99945.28;5033339;28;20550;-96
2022/09/01 05:38:12;;;;;;;8.75;7.78;;;;;;;15.21;100.00;99946.34;5008492;28;20101;-96
2022/09/01 05:40:39;;;;;;;8.15;7.10;;;;;;;15.22;100.00;99955.50;5001815;28;20033;-96
2022/09/01 05:43:11;;;;;;;8.55;7.75;;;;;;;15.22;100.00;99947.13;5019426;28;20062;-94
2022/09/01 05:45:42;;;;;;;8.02;7.32;;;;;;;15.24;100.00;99947.44;5020138;23;20581;-78
2022/09/01 05:48:20;;;;;;;8.65;7.70;;;;;;;15.20;100.00;99946.84;4964299;28;20058;-78
2022/09/01 05:50:48;;;;;;;7.95;7.15;;;;;;;15.23;100.00;99957.06;4960859;28;20039;-78
2022/09/01 05:53:17;;;;;;;8.20;7.35;;;;;;;15.25;100.00;99946.16;4961153;28;20054;-78
2022/09/01 05:55:47;;;;;;;8.20;7.05;;;;;;;15.32;100.00;99951.44;4985314;28;20073;-77
2022/09/01 05:58:15;;;;;;;7.25;6.55;;;;;;;15.40;100.00;99945.06;4988118;28;20387;-78
2022/09/01 06:00:47;;;;;;;9.35;7.60;;;;;;;15.47;100.00;99955.09;4971934;28;20475;-78
2022/09/01 06:03:14;;;;;;;7.80;6.97;;;;;;;15.51;100.00;99946.56;4972479;28;20126;-77
2022/09/01 06:05:47;;;;;;;7.82;7.00;;;;;;;15.61;100.00;99943.25;4980566;28;20538;-78
2022/09/01 06:08:14;;;;;;;7.63;6.85;;;;;;;15.70;100.00;99946.00;4973617;28;20042;-78
2022/09/01 06:10:40;;;;;;;7.57;6.32;;;;;;;15.73;100.00;99944.31;4959041;28;20113;-78
2022/09/01 06:13:07;;;;;;;11.35;7.15;;;;;;;15.79;100.00;99942.38;4983599;28;20082;-77
2022/09/01 06:15:37;;;;;;;7.97;6.57;;;;;;;15.82;100.00;99941.44;4970321;28;20038;-77
2022/09/01 06:18:11;;;;;;;12.18;10.20;;;;;;;15.84;100.00;99945.31;4969596;28;20031;-77
2022/09/01 06:20:46;;;;;;;8.70;7.80;;;;;;;15.89;100.00;99941.09;4962776;28;20422;-78
2022/09/01 06:23:16;;;;;;;8.55;7.40;;;;;;;15.98;100.00;99949.41;4969166;28;20518;-77
2022/09/01 06:25:45;;;;;;;7.95;7.15;;;;;;;15.89;100.00;99946.69;4972582;28;20097;-77
2022/09/01 06:28:20;;;;;;;9.13;7.55;;;;;;;15.94;100.00;99936.84;4965608;28;20096;-78
2022/09/01 06:30:46;;;;;;;7.80;7.00;;;;;;;15.88;100.00;99944.34;4959034;28;20125;-77
2022/09/01 06:33:12;;;;;;;8.77;7.50;;;;;;;15.86;100.00;99942.81;4970860;28;20055;-78
2022/09/01 06:35:42;;;;;;;8.60;7.78;;;;;;;15.92;100.00;99947.75;4971737;28;20138;-78
2022/09/01 06:38:10;;;;;;;8.27;7.45;;;;;;;15.89;100.00;99945.91;4970868;28;20447;-78
2022/09/01 06:40:42;;;;;;;8.98;8.07;;;;;;;15.88;100.00;99949.94;4971669;28;20154;-78
2022/09/01 06:43:11;;;;;;;8.70;7.75;;;;;;;15.90;100.00;99959.41;4970826;28;20485;-78
2022/09/01 06:45:41;;;;;;;8.50;7.70;;;;;;;15.96;100.00;99948.34;4971478;28;20041;-78
2022/09/01 06:48:07;;;;;;;10.93;8.45;;;;;;;15.99;100.00;99950.19;4974018;28;20038;-77
2022/09/01 06:50:38;;;;;;;9.45;8.57;;;;;;;16.02;100.00;99946.44;4972635;28;20054;-78
2022/09/01 06:53:09;;;;;;;10.50;9.50;;;;;;;16.07;100.00;99948.59;4970483;28;20101;-78
2022/09/01 06:55:37;;;;;;;12.23;9.88;;;;;;;16.00;100.00;99943.34;4972365;28;20117;-78
2022/09/01 06:58:08;;;;;;;11.68;10.50;;;;;;;15.95;100.00;99941.19;4981925;28;20045;-78
2022/09/01 07:00:38;;;;;;;11.32;10.30;;;;;;;16.04;100.00;99949.53;4972731;28;20054;-78
2022/09/01 07:03:08;;;;;;;12.35;11.10;;;;;;;16.13;100.00;99955.09;4958212;28;20041;-78
2022/09/01 07:05:57;;;;;;;11.80;10.68;;;;;;;16.20;100.00;99957.50;4982345;28;20042;-77
2022/09/01 07:08:48;;;;;;;13.77;12.45;;;;;;;16.23;100.00;99953.75;4974362;28;20046;-78
2022/09/01 07:11:29;;;;;;;12.88;11.55;;;;;;;16.18;100.00;99952.38;4973244;28;20054;-78
2022/09/01 07:14:00;;;;;;;12.07;10.88;;;;;;;16.04;100.00;99958.72;4970522;28;20051;-77
2022/09/01 07:16:28;;;;;;;12.30;11.05;;;;;;;16.10;100.00;99958.81;4958442;28;20057;-77
2022/09/01 07:18:57;;;;;;;13.75;12.43;;;;;;;16.15;100.00;99958.16;4989425;28;20058;-77
2022/09/01 07:21:24;;;;;;;15.48;13.15;;;;;;;16.18;100.00;99971.19;4965826;28;20097;-77
2022/09/01 07:23:50;;;;;;;13.18;11.98;;;;;;;16.21;100.00;99973.06;4978955;28;20453;-78
2022/09/01 07:26:21;;;;;;;13.73;12.25;;;;;;;16.23;100.00;99967.75;4970011;28;20046;-78
2022/09/01 07:28:49;;;;;;;13.80;12.30;;;;;;;16.21;100.00;99973.06;4970627;28;20134;-78
2022/09/01 07:31:30;;;;;;;12.82;11.52;;;;;;;16.31;100.00;99971.72;4969921;28;20564;-78
2022/09/01 07:36:44;;;;;;;13.30;11.93;;;;;;;16.35;100.00;99986.31;4957245;28;20047;-78
2022/09/01 07:39:12;;;;;;;13.20;11.52;;;;;;;16.38;100.00;99982.56;4981045;28;20125;-78
2022/09/01 07:41:40;;;;;;;12.93;11.63;;;;;;;16.43;100.00;99984.69;4981172;28;20438;-78
2022/09/01 07:44:25;;;;;;;13.02;11.82;;;;;;;16.50;100.00;99989.19;4978093;28;20178;-78
2022/09/01 07:47:10;;;;;;;13.27;12.02;;;;;;;16.47;100.00;99988.09;4982316;28;20057;-78
2022/09/01 07:49:36;;;;;;;14.25;11.95;;;;;;;16.57;100.00;99986.03;4977150;28;20046;-78
2022/09/01 07:52:03;;;;;;;13.18;11.70;;;;;;;16.60;100.00;99980.25;4970418;28;20085;-78
2022/09/01 07:54:29;;;;;;;14.05;11.95;;;;;;;16.65;100.00;99985.19;4978763;28;20054;-78
2022/09/01 07:56:56;;;;;;;12.70;11.60;;;;;;;16.67;100.00;99971.47;4971358;28;20623;-78
2022/09/01 07:59:22;;;;;;;14.30;12.68;;;;;;;16.82;100.00;99988.31;4980780;28;20401;-78
2022/09/01 08:01:52;;;;;;;13.15;11.73;;;;;;;16.89;100.00;99987.16;4974070;28;20046;-78
2022/09/01 08:04:21;;;;;;;12.15;10.88;;;;;;;16.83;100.00;99975.81;4970537;28;20039;-78
2022/09/01 08:06:47;;;;;;;13.20;11.77;;;;;;;16.90;100.00;99983.88;4983728;28;20047;-78
2022/09/01 08:09:13;;;;;;;11.25;10.25;;;;;;;16.99;100.00;99988.59;4984677;28;20430;-79
2022/09/01 08:11:39;;;;;;;11.82;10.77;;;;;;;17.09;100.00;99984.44;4976961;28;20035;-79
2022/09/01 08:14:05;;;;;;;12.10;10.90;;;;;;;17.16;100.00;99984.84;4973748;28;20513;-79
2022/09/01 08:16:31;;;;;;;11.57;10.38;;;;;;;17.26;100.00;99982.72;4976872;28;20129;-79
2022/09/01 08:18:59;;;;;;;10.77;9.70;;;;;;;17.30;100.00;99983.28;4967352;28;20121;-79
2022/09/01 08:21:28;;;;;;;11.68;9.90;;;;;;;17.35;100.00;99982.59;4976886;28;20030;-78
2022/09/01 08:24:13;;;;;;;11.80;9.27;;;;;;;17.37;100.00;99985.69;4985746;28;20153;-79
2022/09/01 08:26:40;;;;;;;10.35;9.35;;;;;;;17.31;100.00;99984.81;4990799;28;20125;-79
2022/09/01 08:29:06;;;;;;;10.68;9.43;;;;;;;17.29;100.00;99989.38;4975390;28;20525;-79
2022/09/01 08:31:36;;;;;;;12.05;9.60;;;;;;;17.13;100.00;99985.81;4976794;28;20041;-78
2022/09/01 08:34:04;;;;;;;10.88;9.88;;;;;;;17.19;100.00;99988.69;4983141;28;20401;-78
2022/09/01 08:36:31;;;;;;;10.68;9.68;;;;;;;17.20;100.00;99995.84;4973303;28;20102;-78
2022/09/01 08:38:57;;;;;;;10.55;9.45;;;;;;;17.29;100.00;99990.16;4973565;28;20030;-79
2022/09/01 08:41:24;;;;;;;11.50;10.07;;;;;;;17.35;100.00;99991.00;4976422;28;20034;-79
2022/09/01 08:44:24;;;;;;;13.95;9.35;;;;;;;17.39;100.00;99988.78;4964603;28;20100;-79
2022/09/01 08:46:55;;;;;;;9.45;8.63;;;;;;;17.45;100.00;99988.88;4982955;28;20067;-79
2022/09/01 08:49:22;;;;;;;10.45;9.35;;;;;;;17.59;100.00;99983.25;4976426;28;20505;-79
2022/09/01 08:52:33;;;;;;;10.48;9.40;;;;;;;17.68;100.00;99994.38;4969839;28;20066;-79
2022/09/01 08:55:09;;;;;;;9.80;8.90;;;;;;;17.71;100.00;99993.41;4957792;28;20109;-79
2022/09/01 08:57:38;;;;;;;12.18;8.70;;;;;;;17.68;100.00;99997.19;4976380;28;20108;-79
2022/09/01 09:00:23;;;;;;;9.43;8.43;;;;;;;17.68;100.00;100000.00;4983054;28;20051;-78
2022/09/01 09:03:18;;;;;;;9.13;8.23;;;;;;;17.63;100.00;99999.91;4973013;28;20047;-78
2022/09/01 09:05:52;;;;;;;8.80;7.90;;;;;;;17.73;100.00;99992.16;4978903;28;20061;-79
2022/09/01 09:08:26;;;;;;;9.25;7.85;;;;;;;17.68;100.00;99990.78;4977619;28;20047;-79
2022/09/01 09:11:12;;;;;;;10.00;8.10;;;;;;;17.65;100.00;99991.78;4980007;28;20309;-78
2022/09/01 09:14:16;;;;;;;8.73;7.60;;;;;;;17.64;100.00;99988.19;4979194;28;20576;-78
2022/09/01 09:16:46;;;;;;;8.13;7.32;;;;;;;17.57;100.00;99999.81;4972578;28;20047;-78
2022/09/01 09:19:23;;;;;;;10.05;7.82;;;;;;;17.56;100.00;99991.84;4973546;28;20043;-78
2022/09/01 09:21:51;;;;;;;9.10;7.70;;;;;;;17.63;100.00;99983.84;4980757;28;20070;-79
2022/09/01 09:24:51;;;;;;;9.00;8.10;;;;;;;17.75;100.00;99978.41;4975717;28;20417;-79
2022/09/01 09:27:26;;;;;;;11.98;8.20;;;;;;;17.87;100.00;99983.72;4983908;28;20038;-78
2022/09/01 09:29:57;;;;;;;11.80;7.10;;;;;;;18.00;100.00;99977.75;4981727;28;20043;-79
2022/09/01 09:32:40;;;;;;;8.20;7.40;;;;;;;17.94;100.00;99971.28;4984816;28;20455;-79
2022/09/01 09:35:20;;;;;;;9.75;7.70;;;;;;;17.92;100.00;99973.78;4977717;28;20046;-78
2022/09/01 09:37:46;;;;;;;10.10;7.68;;;;;;;17.87;100.00;99960.47;4979271;28;20054;-79
2022/09/01 09:40:15;;;;;;;8.55;7.50;;;;;;;17.99;100.00;99962.19;4977488;28;20031;-79
2022/09/01 09:43:00;;;;;;;8.93;6.82;;;;;;;18.19;100.00;99965.00;4981467;28;20047;-79
2022/09/01 09:45:34;;;;;;;10.57;6.93;;;;;;;18.47;100.00;99965.34;4981585;28;20069;-79
2022/09/01 09:48:23;;;;;;;11.15;7.15;;;;;;;18.71;100.00;99974.31;4981435;28;20474;-79
2022/09/01 09:50:48;;;;;;;8.55;6.88;;;;;;;18.73;100.00;99976.63;4978395;28;20403;-79
2022/09/01 09:53:29;;;;;;;8.57;7.40;;;;;;;18.92;100.00;99967.41;4984613;28;20046;-79
2022/09/01 09:56:23;;;;;;;9.75;8.43;;;;;;;18.83;100.00;99963.97;4974370;28;20043;-79
2022/09/01 09:58:48;;;;;;;;;;;;;;;18.95;100.00;99971.25;4977277;28;20042;-80
2022/09/01 10:01:22;;;;;;;11.45;8.75;;;;;;;19.05;100.00;99969.78;4984108;28;20359;-79
2022/09/01 10:03:56;;;;;;;11.15;9.23;;;;;;;19.00;100.00;99962.09;4987442;28;20049;-78
2022/09/01 10:06:44;;;;;;;10.68;9.23;;;;;;;18.78;100.00;99965.44;4959006;28;20125;-78
2022/09/01 10:09:37;;;;;;;14.55;9.52;;;;;;;18.77;100.00;99968.75;4973556;28;20463;-79
2022/09/01 10:12:04;;;;;;;12.43;8.65;;;;;;;18.83;100.00;99963.97;4983281;28;20113;-78
2022/09/01 10:14:47;;;;;;;10.48;8.43;;;;;;;18.85;100.00;99961.41;4975891;28;20082;-79
2022/09/01 10:17:14;;;;;;;;;;;;;;;18.63;100.00;99971.19;4965607;28;20050;-80
2022/09/01 10:19:44;;;;;;;14.65;9.05;;;;;;;18.68;100.00;99961.28;4958163;28;19918;-79
2022/09/01 10:22:12;;;;;;;13.88;9.38;;;;;;;18.84;100.00;99959.91;4971503;28;20047;-80
2022/09/01 10:24:38;;;;;;;12.55;9.93;;;;;;;18.99;100.00;99960.56;4973656;28;20073;-80
2022/09/01 10:27:15;;;;;;;11.55;10.23;;;;;;;18.75;100.00;99957.25;4972962;28;20038;-77
2022/09/01 10:29:45;;;;;;;11.68;9.52;;;;;;;18.67;100.00;99964.56;4959389;28;20034;-77
2022/09/01 10:32:15;;;;;;;9.98;8.95;;;;;;;18.72;100.00;99953.41;4972482;28;20406;-77
2022/09/01 10:34:41;;;;;;;13.85;9.70;;;;;;;18.86;100.00;99965.78;4970981;28;20118;-78
2022/09/01 10:37:06;;;;;;;10.93;9.48;;;;;;;18.75;100.00;99957.25;4973307;28;20125;-79
2022/09/01 10:39:32;;;;;;;10.52;9.25;;;;;;;18.78;100.00;99956.25;4979753;28;20556;-79
2022/09/01 10:42:06;;;;;;;11.43;10.32;;;;;;;18.73;100.00;99945.72;4980678;28;20502;-79
2022/09/01 10:44:34;;;;;;;10.90;9.75;;;;;;;18.72;100.00;99953.41;4980822;28;20047;-78
2022/09/01 10:47:32;;;;;;;11.90;9.80;;;;;;;18.88;100.00;99954.81;4973110;28;20470;-78
2022/09/01 10:49:59;;;;;;;12.00;9.65;;;;;;;18.88;100.00;99954.81;4962717;28;20406;-78
2022/09/01 10:52:40;;;;;;;10.20;9.13;;;;;;;18.76;100.00;99947.56;4973696;28;20042;-78
2022/09/01 10:55:17;;;;;;;10.18;9.18;;;;;;;18.64;100.00;99949.47;4983061;28;20133;-78
2022/09/01 10:57:58;;;;;;;12.48;9.25;;;;;;;18.62;100.00;99966.81;4973606;28;20045;-78
2022/09/01 11:00:24;;;;;;;10.50;9.40;;;;;;;18.57;100.00;99961.13;4990383;28;20053;-78
2022/09/01 11:03:25;;;;;;;9.80;8.80;;;;;;;18.60;100.00;99963.72;4972387;28;20042;-78
2022/09/01 11:05:56;;;;;;;10.02;9.02;;;;;;;18.56;100.00;99968.78;4972507;28;20058;-79
2022/09/01 11:08:22;;;;;;;10.98;8.77;;;;;;;18.51;100.00;99966.66;4978674;28;20047;-79
2022/09/01 11:10:53;;;;;;;10.68;9.43;;;;;;;18.58;100.00;99969.06;4979709;28;20046;-79
2022/09/01 11:13:48;;;;;;;9.35;8.45;;;;;;;18.61;100.00;99970.09;4972951;28;20401;-78
2022/09/01 11:16:35;;;;;;;10.18;8.25;;;;;;;18.63;100.00;99973.22;4969357;28;20046;-79
2022/09/01 11:19:22;;;;;;;10.98;7.80;;;;;;;18.87;100.00;99964.53;4954844;28;20039;-78
2022/09/01 11:22:08;;;;;;;9.00;8.05;;;;;;;19.23;100.00;99963.84;4968723;28;20517;-79
2022/09/01 11:24:37;;;;;;;8.98;7.60;;;;;;;19.48;100.00;99962.28;4968933;28;20471;-80
2022/09/01 11:27:04;;;;;;;10.45;7.60;;;;;;;19.57;100.00;99958.50;4987414;28;20105;-79
2022/09/01 11:29:52;;;;;;;8.73;7.10;;;;;;;19.63;100.00;99962.13;4972908;28;20068;-79
2022/09/01 11:32:21;;;;;;;8.20;6.50;;;;;;;19.66;100.00;99967.50;4978546;28;20653;-81
2022/09/01 11:34:48;;;;;;;7.78;6.88;;;;;;;19.85;100.00;99970.72;4969864;28;20035;-79
2022/09/01 11:37:16;;;;;;;8.20;6.57;;;;;;;19.95;100.00;99966.41;4971681;28;20794;-79
2022/09/01 11:39:47;;;;;;;7.30;5.53;;;;;;;20.18;100.00;99970.88;4981416;28;20030;-79
2022/09/01 11:42:18;;;;;;;6.22;5.28;;;;;;;20.34;95.41;99958.94;4981958;28;20134;-80
2022/09/01 11:45:07;;;;;;;7.57;4.70;;;;;;;20.38;94.16;99953.84;4953772;28;20414;-80
2022/09/01 11:51:07;;;;;;;5.68;4.95;;;;;;;20.61;95.05;99945.47;4980055;28;20133;-80
2022/09/01 11:53:33;;;;;;;6.88;4.80;;;;;;;20.68;94.59;99942.16;4973277;28;20150;-80
2022/09/01 11:56:14;;;;;;;6.25;4.75;;;;;;;20.70;92.63;99940.38;4971859;28;20521;-79
2022/09/01 11:58:40;;;;;;;5.47;4.35;;;;;;;20.66;90.41;99944.72;4962038;28;20046;-80
2022/09/01 12:01:12;;;;;;;5.82;4.47;;;;;;;20.77;91.39;99939.88;4952630;28;20038;-81
2022/09/01 12:03:38;;;;;;;7.32;4.80;;;;;;;20.87;91.80;99943.22;4969230;28;20105;-80
2022/09/01 12:06:06;;;;;;;5.57;4.50;;;;;;;20.85;89.27;99940.16;4977791;28;20039;-79
2022/09/01 12:08:35;;;;;;;7.70;4.32;;;;;;;20.79;89.69;99936.53;4971985;28;20046;-79
2022/09/01 12:11:09;;;;;;;4.90;4.28;;;;;;;20.78;88.09;99940.66;4963316;28;20568;-78
2022/09/01 12:13:35;;;;;;;6.32;4.25;;;;;;;20.91;89.78;99949.38;4969054;28;20058;-78
2022/09/01 12:16:04;;;;;;;6.38;4.57;;;;;;;21.02;87.71;99943.75;4969279;28;20061;-80
2022/09/01 12:18:34;;;;;;;6.18;3.78;;;;;;;21.21;85.74;99939.19;4974095;28;20047;-80
2022/09/01 12:21:02;;;;;;;4.47;3.90;;;;;;;21.42;85.16;99936.09;4978978;28;20035;-80